Dati Storici

Data ora Umidita' aria (%) Temperatura aria (°C) Rad globale (W/m²) Gonioanemometro (°) Tacoanemometro (m/s) Pioggia (mm)
31-10-2012 09:30 70.9 % 7.886 121.623 33.423 1.658 0
31-10-2012 09:20 71.3 % 7.537 133.002 18.113 1.624 0
31-10-2012 09:10 72.4 % 7.221 113.804 27.367 1.987 0
31-10-2012 09:00 72.7 % 6.983 64.448 69.895 2.467 0
31-10-2012 08:50 73.6 % 6.91 48.126 15.882 1.564 0
31-10-2012 08:40 74 % 6.765 54.536 24.66 1.661 0
31-10-2012 08:30 74.2 % 6.675 39.115 0.329 1.717 0
31-10-2012 08:20 74.6 % 6.617 28.071 5.729 2.262 0
31-10-2012 08:10 74.7 % 6.582 13.163 13.928 2.172 0
31-10-2012 08:00 74.3 % 6.562 8.843 4.241 1.36 0
31-10-2012 07:50 74.2 % 6.601 5.297 330.902 0.802 0
31-10-2012 07:40 74.3 % 6.554 4.003 11.789 2.028 0
31-10-2012 07:30 74.2 % 6.612 3.477 15.755 1.014 0
31-10-2012 07:20 73.7 % 6.559 3.503 17.692 1.138 0
31-10-2012 07:10 73.7 % 6.552 3.477 0.278 1.443 0
31-10-2012 07:00 73.4 % 6.564 3.439 352.486 1.442 0
31-10-2012 06:50 73.4 % 6.548 3.529 17.462 2.12 0
31-10-2012 06:40 73.6 % 6.527 3.396 16.212 1.266 0
31-10-2012 06:30 73.6 % 6.495 3.435 25.787 2.317 0
31-10-2012 06:20 73.6 % 6.469 3.486 341.65 1.673 0

I dati sono presentati in modo automatico a scopo informativo. In seguito a verifica i dati possono subire modifiche o essere invalidati e non riportati negli archivi definitivi.